Time;durP1;ratioP1;P1;durP2;ratioP2;P2;SDS_P1;SDS_P2;PMS_P1;PMS_P2;Temp;Humidity;BMP_temperature;BMP_pressure;BME280_temperature;BME280_humidity;BME280_pressure;Samples;Min_cycle;Max_cycle;Signal;HPM_P1;HPM_P2
2023/06/12 00:00:51;;;;;;;4.25;3.72;;;20.10;99.90;;;;;;5030490;28;20025;-48
2023/06/12 00:03:19;;;;;;;4.30;3.80;;;20.10;99.90;;;;;;5030826;28;20021;-44
2023/06/12 00:05:45;;;;;;;4.93;4.00;;;20.10;99.90;;;;;;5030555;28;20395;-45
2023/06/12 00:08:13;;;;;;;4.55;3.90;;;20.10;99.90;;;;;;5031061;28;20165;-44
2023/06/12 00:10:40;;;;;;;9.43;4.07;;;20.10;99.90;;;;;;5030540;28;20100;-45
2023/06/12 00:13:08;;;;;;;5.53;3.47;;;20.10;99.90;;;;;;5032060;28;20045;-44
2023/06/12 00:15:34;;;;;;;6.90;4.03;;;20.10;99.90;;;;;;5034209;28;20538;-44
2023/06/12 00:18:00;;;;;;;7.75;4.10;;;20.10;99.90;;;;;;5034168;28;20030;-46
2023/06/12 00:20:27;;;;;;;4.50;3.78;;;20.10;99.90;;;;;;5034048;28;20123;-45
2023/06/12 00:22:53;;;;;;;4.93;3.80;;;20.00;99.90;;;;;;5034336;28;20493;-45
2023/06/12 00:25:20;;;;;;;7.05;3.78;;;20.10;99.90;;;;;;5034557;28;20408;-45
2023/06/12 00:27:46;;;;;;;4.57;3.85;;;20.10;99.90;;;;;;5033516;28;20365;-44
2023/06/12 00:30:12;;;;;;;4.97;3.88;;;20.00;99.90;;;;;;5034762;28;20567;-47
2023/06/12 00:32:38;;;;;;;9.05;3.63;;;20.00;99.90;;;;;;5034035;28;20112;-44
2023/06/12 00:35:04;;;;;;;4.55;3.65;;;20.00;99.90;;;;;;5034219;28;20101;-48
2023/06/12 00:37:30;;;;;;;4.28;3.47;;;20.00;99.90;;;;;;5034360;28;20388;-36
2023/06/12 00:39:56;;;;;;;4.80;3.78;;;20.00;99.90;;;;;;5034345;28;20095;-36
2023/06/12 00:42:22;;;;;;;6.40;3.70;;;20.00;99.90;;;;;;5034764;28;20107;-39
2023/06/12 00:44:47;;;;;;;4.10;3.63;;;20.00;99.90;;;;;;5034258;28;20484;-39
2023/06/12 00:47:14;;;;;;;5.00;3.90;;;20.00;99.90;;;;;;5033685;28;20053;-35
2023/06/12 00:49:41;;;;;;;5.22;3.60;;;20.00;99.90;;;;;;5033697;28;20029;-37
2023/06/12 00:52:11;;;;;;;5.03;3.58;;;20.00;99.90;;;;;;5034270;28;20029;-35
2023/06/12 00:54:38;;;;;;;4.57;4.07;;;19.90;99.90;;;;;;5033529;28;20036;-43
2023/06/12 00:57:06;;;;;;;4.57;3.53;;;20.00;99.90;;;;;;5034207;28;20029;-48
2023/06/12 00:59:32;;;;;;;6.10;4.05;;;20.00;99.90;;;;;;5033459;28;20025;-45
2023/06/12 01:01:58;;;;;;;4.68;4.00;;;19.90;99.90;;;;;;5034690;28;20029;-48
2023/06/12 01:04:23;;;;;;;5.47;3.90;;;19.90;99.90;;;;;;5033406;28;20477;-47
2023/06/12 01:06:58;;;;;;;4.45;3.60;;;19.90;99.90;;;;;;5033130;28;20033;-47
2023/06/12 01:09:42;;;;;;;5.55;3.53;;;19.90;99.90;;;;;;5033299;28;20028;-44
2023/06/12 01:12:10;;;;;;;7.13;3.95;;;19.90;99.90;;;;;;5033660;28;20511;-49
2023/06/12 01:14:37;;;;;;;7.47;3.95;;;19.90;99.90;;;;;;5033827;28;20037;-44
2023/06/12 01:17:03;;;;;;;3.58;3.20;;;19.90;99.90;;;;;;5033029;28;20024;-46
2023/06/12 01:19:28;;;;;;;5.75;3.97;;;19.90;99.90;;;;;;5033014;28;20029;-48
2023/06/12 01:22:03;;;;;;;4.88;3.90;;;19.90;99.90;;;;;;5033942;28;20388;-47
2023/06/12 01:24:38;;;;;;;7.07;4.10;;;19.90;99.90;;;;;;5033405;28;20761;-46
2023/06/12 01:27:25;;;;;;;5.93;3.97;;;19.90;99.90;;;;;;5032897;28;20492;-45
2023/06/12 01:29:57;;;;;;;4.22;3.83;;;19.90;99.90;;;;;;5032866;28;20026;-45
2023/06/12 01:32:24;;;;;;;7.00;4.05;;;19.90;99.90;;;;;;5032755;28;20040;-45
2023/06/12 01:34:56;;;;;;;5.47;3.80;;;19.90;99.90;;;;;;5032924;28;20044;-47
2023/06/12 01:37:43;;;;;;;4.47;3.70;;;19.80;99.90;;;;;;5032748;28;20033;-44
2023/06/12 01:40:12;;;;;;;4.03;3.35;;;19.80;99.90;;;;;;5033227;28;20136;-46
2023/06/12 01:42:38;;;;;;;5.35;3.83;;;19.90;99.90;;;;;;5032663;28;20745;-46
2023/06/12 01:45:05;;;;;;;5.53;3.65;;;19.80;99.90;;;;;;5033733;28;20026;-48
2023/06/12 01:47:31;;;;;;;4.55;3.90;;;19.80;99.90;;;;;;5032633;28;20017;-44
2023/06/12 01:49:57;;;;;;;4.95;4.45;;;19.80;99.90;;;;;;5033343;28;20144;-45
2023/06/12 01:52:22;;;;;;;6.15;4.05;;;19.80;99.90;;;;;;5033130;28;20033;-46
2023/06/12 01:54:48;;;;;;;5.53;4.15;;;19.80;99.90;;;;;;5032992;28;20045;-44
2023/06/12 01:57:15;;;;;;;4.53;3.58;;;19.80;99.90;;;;;;5032340;28;20116;-47
2023/06/12 01:59:41;;;;;;;5.50;3.72;;;19.80;99.90;;;;;;5032322;28;20488;-46
2023/06/12 02:02:07;;;;;;;4.90;3.67;;;19.80;99.90;;;;;;5032004;28;20025;-46
2023/06/12 02:04:33;;;;;;;5.03;3.70;;;19.80;99.90;;;;;;5032546;28;20021;-45
2023/06/12 02:06:58;;;;;;;5.18;3.70;;;19.80;99.90;;;;;;5032101;28;20111;-49
2023/06/12 02:09:24;;;;;;;4.55;3.53;;;19.80;99.90;;;;;;5032071;28;20033;-45
2023/06/12 02:11:50;;;;;;;6.35;3.60;;;19.80;99.90;;;;;;5032428;28;20033;-46
2023/06/12 02:14:15;;;;;;;8.50;3.63;;;19.70;99.90;;;;;;5032495;28;20029;-46
2023/06/12 02:16:41;;;;;;;4.63;3.70;;;19.80;99.90;;;;;;5032941;28;20041;-46
2023/06/12 02:19:07;;;;;;;8.57;3.80;;;19.70;99.90;;;;;;5031972;28;20026;-47
2023/06/12 02:21:32;;;;;;;5.40;3.88;;;19.70;99.90;;;;;;5032207;28;20390;-45
2023/06/12 02:23:58;;;;;;;6.95;3.90;;;19.70;99.90;;;;;;5033078;28;20477;-44
2023/06/12 02:26:24;;;;;;;4.95;3.95;;;19.70;99.90;;;;;;5032018;28;20021;-45
2023/06/12 02:29:11;;;;;;;4.72;3.50;;;19.70;99.90;;;;;;5032342;28;20457;-46
2023/06/12 02:31:36;;;;;;;4.47;3.55;;;19.70;99.90;;;;;;5031788;28;20451;-45
2023/06/12 02:34:02;;;;;;;7.82;3.88;;;19.70;99.90;;;;;;5031996;28;20096;-45
2023/06/12 02:36:29;;;;;;;6.03;4.07;;;19.70;99.90;;;;;;5031276;28;20045;-45
2023/06/12 02:38:55;;;;;;;4.88;4.03;;;19.70;99.90;;;;;;5031716;28;20025;-45
2023/06/12 02:41:21;;;;;;;5.05;3.38;;;19.70;99.90;;;;;;5031455;28;20495;-48
2023/06/12 02:43:47;;;;;;;4.75;3.88;;;19.70;99.90;;;;;;5031647;28;20060;-43
2023/06/12 02:46:13;;;;;;;6.60;3.78;;;19.70;99.90;;;;;;5031481;28;20056;-46
2023/06/12 02:48:38;;;;;;;5.45;3.60;;;19.70;99.90;;;;;;5031730;28;20013;-47
2023/06/12 02:51:04;;;;;;;5.57;3.60;;;19.70;99.90;;;;;;5031456;28;20029;-43
2023/06/12 02:53:31;;;;;;;5.10;3.35;;;19.60;99.90;;;;;;5031511;28;20057;-44
2023/06/12 02:55:56;;;;;;;5.28;4.10;;;19.60;99.90;;;;;;5031918;28;20021;-45
2023/06/12 02:58:22;;;;;;;5.43;3.97;;;19.60;99.90;;;;;;5031354;28;20401;-46
2023/06/12 03:00:48;;;;;;;4.95;3.80;;;19.60;99.90;;;;;;5031110;28;20029;-44
2023/06/12 03:03:14;;;;;;;4.07;3.45;;;19.60;99.90;;;;;;5031278;28;20018;-45
2023/06/12 03:05:41;;;;;;;4.10;3.38;;;19.60;99.90;;;;;;5031875;28;20129;-45
2023/06/12 03:08:08;;;;;;;8.40;4.22;;;19.60;99.90;;;;;;5032647;28;20358;-48
2023/06/12 03:10:34;;;;;;;4.82;3.60;;;19.60;99.90;;;;;;5031178;28;20028;-47
2023/06/12 03:13:00;;;;;;;4.78;3.50;;;19.60;99.90;;;;;;5031301;28;20491;-47
2023/06/12 03:15:26;;;;;;;4.40;3.83;;;19.60;99.90;;;;;;5031437;28;20030;-48
2023/06/12 03:17:52;;;;;;;6.60;3.88;;;19.60;99.90;;;;;;5031134;28;20457;-48
2023/06/12 03:20:18;;;;;;;6.07;3.80;;;19.60;99.90;;;;;;5032004;28;20065;-44
2023/06/12 03:22:43;;;;;;;6.97;3.75;;;19.60;99.90;;;;;;5031975;28;20037;-47
2023/06/12 03:25:15;;;;;;;5.97;3.65;;;19.60;99.90;;;;;;5032462;28;20037;-49
2023/06/12 03:27:41;;;;;;;3.75;3.45;;;19.50;99.90;;;;;;5031053;28;20017;-47
2023/06/12 03:30:07;;;;;;;7.20;3.92;;;19.60;99.90;;;;;;5030818;28;20021;-44
2023/06/12 03:32:32;;;;;;;8.20;3.63;;;19.60;99.90;;;;;;5032074;28;20104;-45
2023/06/12 03:34:58;;;;;;;4.75;3.67;;;19.50;99.90;;;;;;5031813;28;20053;-46
2023/06/12 03:37:27;;;;;;;5.05;3.60;;;19.50;99.90;;;;;;5031112;28;20061;-47
2023/06/12 03:39:53;;;;;;;4.13;3.38;;;19.50;99.90;;;;;;5030889;28;20045;-44
2023/06/12 03:42:19;;;;;;;6.07;3.70;;;19.50;99.90;;;;;;5030718;28;20527;-46
2023/06/12 03:44:44;;;;;;;6.28;3.30;;;19.50;99.90;;;;;;5030937;28;20022;-46
2023/06/12 03:47:11;;;;;;;5.03;3.50;;;19.50;99.90;;;;;;5030855;28;20500;-48
2023/06/12 03:49:38;;;;;;;4.32;3.70;;;19.50;99.90;;;;;;5034850;28;20052;-46
2023/06/12 03:52:04;;;;;;;6.63;3.88;;;19.50;99.90;;;;;;5034647;28;20112;-46
2023/06/12 03:54:30;;;;;;;8.93;3.78;;;19.50;99.90;;;;;;5034962;28;20121;-43
2023/06/12 03:56:56;;;;;;;4.75;3.38;;;19.50;99.90;;;;;;5034704;28;20037;-47
2023/06/12 03:59:21;;;;;;;4.40;3.38;;;19.50;99.90;;;;;;5034623;28;20034;-45
2023/06/12 04:01:48;;;;;;;4.72;3.85;;;19.50;99.90;;;;;;5035884;28;20029;-48
2023/06/12 04:04:14;;;;;;;6.07;3.60;;;19.50;99.90;;;;;;5035036;28;20020;-47
2023/06/12 04:06:41;;;;;;;7.13;4.95;;;19.50;99.90;;;;;;5034945;28;20399;-47
2023/06/12 04:09:12;;;;;;;7.57;4.20;;;19.50;99.90;;;;;;5036020;28;20021;-43
2023/06/12 04:11:41;;;;;;;4.43;4.00;;;19.50;99.90;;;;;;5034426;28;20025;-45
2023/06/12 04:14:07;;;;;;;5.65;3.72;;;19.50;99.90;;;;;;5035034;28;20044;-48
2023/06/12 04:16:33;;;;;;;4.22;3.50;;;19.50;99.90;;;;;;5034331;28;20021;-49
2023/06/12 04:19:03;;;;;;;4.97;3.60;;;19.50;99.90;;;;;;5034258;28;20025;-44
2023/06/12 04:21:33;;;;;;;5.75;3.47;;;19.50;99.90;;;;;;5033921;28;20424;-47
2023/06/12 04:24:03;;;;;;;7.35;4.45;;;19.50;99.90;;;;;;5034427;28;20025;-45
2023/06/12 04:26:29;;;;;;;7.28;3.58;;;19.40;99.90;;;;;;5034087;28;20026;-48
2023/06/12 04:28:56;;;;;;;7.72;3.60;;;19.40;99.90;;;;;;5033908;28;20022;-46
2023/06/12 04:31:26;;;;;;;4.43;3.63;;;19.50;99.90;;;;;;5034396;28;20452;-45
2023/06/12 04:33:52;;;;;;;5.18;3.40;;;19.40;99.90;;;;;;5034191;28;20033;-46
2023/06/12 04:36:18;;;;;;;5.55;3.72;;;19.40;99.90;;;;;;5033898;28;20030;-45
2023/06/12 04:38:45;;;;;;;6.10;3.78;;;19.50;99.90;;;;;;5033931;28;20493;-46
2023/06/12 04:41:11;;;;;;;6.53;3.90;;;19.40;99.90;;;;;;5034004;28;20480;-48
2023/06/12 04:43:36;;;;;;;5.50;3.90;;;19.40;99.90;;;;;;5035258;28;20033;-43
2023/06/12 04:46:03;;;;;;;5.57;3.65;;;19.40;99.90;;;;;;5033825;28;20028;-44
2023/06/12 04:48:28;;;;;;;5.10;3.78;;;19.40;99.90;;;;;;5033781;28;20053;-36
2023/06/12 04:50:54;;;;;;;6.32;4.00;;;19.20;99.90;;;;;;5032755;28;20099;-33
2023/06/12 04:53:29;;;;;;;7.85;3.70;;;19.00;99.90;;;;;;5033705;28;20018;-40
2023/06/12 04:55:58;;;;;;;4.93;3.63;;;18.80;99.90;;;;;;5033442;28;20027;-38
2023/06/12 04:58:24;;;;;;;7.22;3.88;;;18.90;99.90;;;;;;5033766;28;20029;-36
2023/06/12 05:00:50;;;;;;;5.30;3.50;;;18.90;99.90;;;;;;5033515;28;20424;-38
2023/06/12 05:03:17;;;;;;;8.27;3.67;;;19.00;99.90;;;;;;5033536;28;20017;-36
2023/06/12 05:05:46;;;;;;;7.25;3.78;;;19.00;99.90;;;;;;5034339;28;20034;-39
2023/06/12 05:08:13;;;;;;;4.88;4.00;;;19.10;99.90;;;;;;5033377;28;20025;-37
2023/06/12 05:10:40;;;;;;;6.88;3.60;;;19.10;99.90;;;;;;5032967;28;20033;-36
2023/06/12 05:13:06;;;;;;;6.63;3.47;;;19.20;99.90;;;;;;5033728;28;20034;-35
2023/06/12 05:15:32;;;;;;;5.60;3.80;;;19.20;99.90;;;;;;5033521;28;20099;-36
2023/06/12 05:17:57;;;;;;;7.07;3.75;;;19.20;99.90;;;;;;5033162;28;20029;-35
2023/06/12 05:20:23;;;;;;;7.20;3.72;;;19.30;99.90;;;;;;5032915;28;20480;-34
2023/06/12 05:22:49;;;;;;;6.25;3.90;;;19.30;99.90;;;;;;5034201;28;20112;-35
2023/06/12 05:25:15;;;;;;;4.90;3.33;;;19.30;99.90;;;;;;5032868;28;20479;-36
2023/06/12 05:27:41;;;;;;;5.78;4.20;;;19.30;99.90;;;;;;5033028;28;20021;-39
2023/06/12 05:30:07;;;;;;;8.05;3.78;;;19.30;99.90;;;;;;5033370;28;20358;-35
2023/06/12 05:32:34;;;;;;;4.72;3.75;;;19.30;99.90;;;;;;5032923;28;20029;-36
2023/06/12 05:35:01;;;;;;;6.20;3.80;;;19.40;99.90;;;;;;5032805;28;20063;-36
2023/06/12 05:37:26;;;;;;;6.30;4.10;;;19.40;99.90;;;;;;5032855;28;20112;-35
2023/06/12 05:39:53;;;;;;;5.90;3.90;;;19.40;99.90;;;;;;5032773;28;20159;-39
2023/06/12 05:42:19;;;;;;;4.93;3.50;;;19.40;99.90;;;;;;5032638;28;20443;-33
2023/06/12 05:44:46;;;;;;;5.05;3.50;;;19.40;99.90;;;;;;5032827;28;20045;-35
2023/06/12 05:47:15;;;;;;;4.63;3.72;;;19.40;99.90;;;;;;5032505;28;20025;-37
2023/06/12 05:49:41;;;;;;;6.53;3.83;;;19.50;99.90;;;;;;5032510;28;20014;-39
2023/06/12 05:52:07;;;;;;;5.18;3.65;;;19.50;99.90;;;;;;5032375;28;20045;-40
2023/06/12 05:54:33;;;;;;;4.18;3.72;;;19.50;99.90;;;;;;5032397;28;20503;-39
2023/06/12 05:57:00;;;;;;;7.72;4.13;;;19.50;99.90;;;;;;5032368;28;20473;-38
2023/06/12 05:59:26;;;;;;;5.95;4.03;;;19.50;99.90;;;;;;5032537;28;20376;-34
2023/06/12 06:01:52;;;;;;;8.50;3.70;;;19.50;99.90;;;;;;5032068;28;20032;-35
2023/06/12 06:04:17;;;;;;;8.27;3.85;;;19.50;99.90;;;;;;5032618;28;20148;-36
2023/06/12 06:06:43;;;;;;;7.05;3.78;;;19.50;99.90;;;;;;5032797;28;20034;-35
2023/06/12 06:09:09;;;;;;;8.85;4.45;;;19.50;99.90;;;;;;5032143;28;20101;-36
2023/06/12 06:11:34;;;;;;;4.93;4.00;;;19.60;99.90;;;;;;5031480;28;20052;-37
2023/06/12 06:14:00;;;;;;;6.70;3.67;;;19.60;99.90;;;;;;5032161;28;20030;-37
2023/06/12 06:16:26;;;;;;;5.72;3.65;;;19.60;99.90;;;;;;5033025;28;20025;-34
2023/06/12 06:18:52;;;;;;;5.68;3.88;;;19.60;99.90;;;;;;5031975;28;20562;-37
2023/06/12 06:21:18;;;;;;;4.70;3.90;;;19.60;99.90;;;;;;5032232;28;20018;-36
2023/06/12 06:23:43;;;;;;;5.10;3.80;;;19.60;99.90;;;;;;5031906;28;20499;-35
2023/06/12 06:26:10;;;;;;;6.00;3.72;;;19.60;99.90;;;;;;5032096;28;20024;-37
2023/06/12 06:28:36;;;;;;;7.43;3.65;;;19.60;99.90;;;;;;5031840;28;20032;-36
2023/06/12 06:31:06;;;;;;;6.43;3.60;;;19.60;99.90;;;;;;5031849;28;20240;-36
2023/06/12 06:33:32;;;;;;;5.53;3.70;;;19.70;99.90;;;;;;5032001;28;20029;-36
2023/06/12 06:35:59;;;;;;;5.28;3.70;;;19.70;99.90;;;;;;5031922;28;20028;-37
2023/06/12 06:38:25;;;;;;;7.57;3.90;;;19.70;99.90;;;;;;5032109;28;20480;-35
2023/06/12 06:40:51;;;;;;;7.80;4.00;;;19.70;99.90;;;;;;5031514;28;20025;-36
2023/06/12 06:43:17;;;;;;;12.55;3.72;;;19.70;99.90;;;;;;5031626;28;20072;-40
2023/06/12 06:45:43;;;;;;;6.13;3.88;;;19.70;99.90;;;;;;5030217;28;20025;-41
2023/06/12 06:48:11;;;;;;;7.30;4.10;;;19.70;99.90;;;;;;5031492;28;20067;-39
2023/06/12 06:50:37;;;;;;;6.85;3.47;;;19.70;99.90;;;;;;5031121;28;20025;-36
2023/06/12 06:53:03;;;;;;;6.25;4.00;;;19.80;99.90;;;;;;5032034;28;20018;-35
2023/06/12 06:55:29;;;;;;;12.25;3.92;;;19.90;99.90;;;;;;5031348;28;20047;-36
2023/06/12 06:57:54;;;;;;;6.00;4.07;;;19.90;99.90;;;;;;5031406;28;20021;-36
2023/06/12 07:00:23;;;;;;;6.28;4.10;;;19.90;99.90;;;;;;5031179;28;20033;-37
2023/06/12 07:02:49;;;;;;;7.20;3.78;;;19.90;99.90;;;;;;5030837;28;20436;-36
2023/06/12 07:05:15;;;;;;;6.25;4.05;;;19.90;99.90;;;;;;5031444;28;20504;-34
2023/06/12 07:07:46;;;;;;;5.22;3.88;;;19.90;99.90;;;;;;5031859;28;20100;-44
2023/06/12 07:10:12;;;;;;;6.35;4.20;;;19.90;99.90;;;;;;5031537;28;20031;-43
2023/06/12 07:12:38;;;;;;;8.70;4.28;;;19.90;99.90;;;;;;5031326;28;20037;-46
2023/06/12 07:15:05;;;;;;;6.82;4.25;;;19.90;99.90;;;;;;5029921;28;20028;-44
2023/06/12 07:17:31;;;;;;;4.85;3.83;;;19.90;99.90;;;;;;5031731;28;20113;-48
2023/06/12 07:19:56;;;;;;;4.25;3.65;;;19.90;99.90;;;;;;5031507;28;20497;-45
2023/06/12 07:22:22;;;;;;;5.45;4.07;;;19.90;99.90;;;;;;5031491;28;20038;-48
2023/06/12 07:24:47;;;;;;;4.00;3.60;;;20.00;99.90;;;;;;5035314;28;20018;-46
2023/06/12 07:27:13;;;;;;;5.63;4.13;;;19.90;99.90;;;;;;5035225;28;20480;-44
2023/06/12 07:29:39;;;;;;;5.50;4.20;;;19.90;99.90;;;;;;5035187;28;20033;-44
2023/06/12 07:32:05;;;;;;;6.38;3.88;;;20.00;99.90;;;;;;5035452;28;20029;-45
2023/06/12 07:34:30;;;;;;;4.15;3.65;;;20.00;99.90;;;;;;5035184;28;20037;-48
2023/06/12 07:36:58;;;;;;;4.43;3.67;;;20.00;99.90;;;;;;5034977;28;20021;-44
2023/06/12 07:39:24;;;;;;;4.43;3.83;;;20.00;99.90;;;;;;5035026;28;20116;-46
2023/06/12 07:41:50;;;;;;;5.05;4.00;;;20.00;99.90;;;;;;5034731;28;20078;-46
2023/06/12 07:44:16;;;;;;;4.28;3.85;;;20.00;99.90;;;;;;5034966;28;20017;-45
2023/06/12 07:46:42;;;;;;;4.55;4.10;;;20.00;99.90;;;;;;5034847;28;20032;-45
2023/06/12 07:49:08;;;;;;;4.47;3.55;;;20.00;99.90;;;;;;5033421;28;20033;-46
2023/06/12 07:51:33;;;;;;;5.15;3.70;;;20.00;99.90;;;;;;5034687;28;20029;-44
2023/06/12 07:53:59;;;;;;;5.75;3.75;;;20.00;99.90;;;;;;5034747;28;20030;-45
2023/06/12 07:56:25;;;;;;;5.13;4.10;;;20.00;99.90;;;;;;5034638;28;20032;-45
2023/06/12 07:58:51;;;;;;;4.15;3.55;;;20.00;99.90;;;;;;5035160;28;20033;-48
2023/06/12 08:01:17;;;;;;;4.13;3.58;;;20.00;99.90;;;;;;5034373;28;20021;-44
2023/06/12 08:03:43;;;;;;;5.28;3.88;;;20.00;99.90;;;;;;5034565;28;20100;-46
2023/06/12 08:06:11;;;;;;;6.05;3.90;;;20.00;99.90;;;;;;5034608;28;20310;-46
2023/06/12 08:08:43;;;;;;;4.82;3.95;;;20.00;99.90;;;;;;5034414;28;20173;-46
2023/06/12 08:11:11;;;;;;;5.57;3.85;;;20.00;99.90;;;;;;5034769;28;20108;-46
2023/06/12 08:13:37;;;;;;;4.53;3.60;;;20.00;99.90;;;;;;5034536;28;20021;-48
2023/06/12 08:16:03;;;;;;;5.00;3.88;;;20.00;99.90;;;;;;5034122;28;20037;-46
2023/06/12 08:18:28;;;;;;;4.68;3.65;;;20.10;99.90;;;;;;5034312;28;20026;-44
2023/06/12 08:20:54;;;;;;;4.40;3.80;;;20.10;99.90;;;;;;5034208;28;20036;-44
2023/06/12 08:23:20;;;;;;;4.30;3.90;;;20.10;99.90;;;;;;5034402;28;20469;-45
2023/06/12 08:25:46;;;;;;;4.68;4.00;;;20.10;99.90;;;;;;5034089;28;20389;-44
2023/06/12 08:28:12;;;;;;;5.50;4.10;;;20.10;99.90;;;;;;5034658;28;20025;-48
2023/06/12 08:30:37;;;;;;;4.35;3.70;;;20.10;99.90;;;;;;5034516;28;20032;-44
2023/06/12 08:33:03;;;;;;;4.55;3.50;;;20.10;99.90;;;;;;5033853;28;20056;-45
2023/06/12 08:35:29;;;;;;;4.88;3.40;;;20.10;99.90;;;;;;5034160;28;20061;-48
2023/06/12 08:37:56;;;;;;;4.45;3.60;;;20.10;99.90;;;;;;5034242;28;20021;-44
2023/06/12 08:40:22;;;;;;;4.53;3.55;;;20.10;99.90;;;;;;5034422;28;20119;-45
2023/06/12 08:42:51;;;;;;;5.22;3.80;;;20.10;99.90;;;;;;5033836;28;20033;-44
2023/06/12 08:45:19;;;;;;;7.15;3.60;;;20.10;99.90;;;;;;5033597;28;20025;-46
2023/06/12 08:47:49;;;;;;;4.60;3.42;;;20.10;99.90;;;;;;5033695;28;20010;-45
2023/06/12 08:50:19;;;;;;;3.88;3.47;;;20.10;99.90;;;;;;5034238;28;20488;-44
2023/06/12 08:52:49;;;;;;;5.78;3.47;;;20.10;99.90;;;;;;5033672;28;20469;-44
2023/06/12 08:55:16;;;;;;;5.43;3.95;;;20.10;99.90;;;;;;5032229;28;20447;-46
2023/06/12 08:57:45;;;;;;;6.22;3.80;;;20.10;99.90;;;;;;5033459;28;20491;-45
2023/06/12 09:00:13;;;;;;;6.32;3.88;;;20.10;99.90;;;;;;5033320;28;20507;-48
2023/06/12 09:02:43;;;;;;;4.60;3.50;;;20.10;99.90;;;;;;5032163;28;20445;-44
2023/06/12 09:05:15;;;;;;;4.93;3.42;;;20.10;99.90;;;;;;5033234;28;20025;-44
2023/06/12 09:07:45;;;;;;;4.30;3.70;;;20.10;99.90;;;;;;5033620;28;20038;-43
2023/06/12 09:10:11;;;;;;;5.90;3.70;;;20.10;99.90;;;;;;5033367;28;20045;-43
2023/06/12 09:12:37;;;;;;;3.55;3.17;;;20.10;99.90;;;;;;5032872;28;20064;-43
2023/06/12 09:15:03;;;;;;;4.57;3.75;;;20.10;99.90;;;;;;5033259;28;20561;-47
2023/06/12 09:17:29;;;;;;;3.95;3.55;;;20.20;99.90;;;;;;5033241;28;20080;-48
2023/06/12 09:19:55;;;;;;;4.80;3.53;;;20.20;99.90;;;;;;5034385;28;20053;-44
2023/06/12 09:22:21;;;;;;;4.00;3.60;;;20.20;99.90;;;;;;5032933;28;20064;-44
2023/06/12 09:24:47;;;;;;;5.15;3.75;;;20.20;99.90;;;;;;5032986;28;20025;-44
2023/06/12 09:27:13;;;;;;;4.47;3.67;;;20.20;99.90;;;;;;5033180;28;20389;-43
2023/06/12 09:29:42;;;;;;;4.00;3.45;;;20.20;99.90;;;;;;5033291;28;20032;-48
2023/06/12 09:32:14;;;;;;;6.85;3.42;;;20.20;99.90;;;;;;5032885;28;20037;-46
2023/06/12 09:34:48;;;;;;;4.32;3.58;;;20.20;99.90;;;;;;5033337;28;20025;-45
2023/06/12 09:37:14;;;;;;;;;;;20.20;99.90;;;;;;5033515;28;20120;-48
2023/06/12 09:39:41;;;;;;;4.07;3.63;;;20.20;99.90;;;;;;5033009;28;19905;-45
2023/06/12 09:42:07;;;;;;;4.60;3.30;;;20.20;99.90;;;;;;5032524;28;20049;-48
2023/06/12 09:44:33;;;;;;;4.63;3.80;;;20.20;99.90;;;;;;5033275;28;20035;-44
2023/06/12 09:47:04;;;;;;;5.00;3.70;;;20.20;99.90;;;;;;5033140;28;20281;-43
2023/06/12 09:49:31;;;;;;;6.78;3.80;;;20.20;99.90;;;;;;5032857;28;20104;-48
2023/06/12 09:52:02;;;;;;;3.90;3.40;;;20.20;99.90;;;;;;5032335;28;20030;-45
2023/06/12 09:54:30;;;;;;;5.45;4.00;;;20.20;99.90;;;;;;5032704;28;20033;-45
2023/06/12 09:56:58;;;;;;;3.58;3.10;;;20.20;99.90;;;;;;5032452;28;20037;-46
2023/06/12 09:59:27;;;;;;;4.72;3.50;;;20.20;99.90;;;;;;5032543;28;20025;-44
2023/06/12 10:01:59;;;;;;;4.07;3.42;;;20.20;99.90;;;;;;5032439;28;20037;-44
2023/06/12 10:04:34;;;;;;;6.50;3.60;;;20.20;99.90;;;;;;5031084;28;20040;-48
2023/06/12 10:07:16;;;;;;;4.78;3.58;;;20.20;99.90;;;;;;5032189;28;20343;-45
2023/06/12 10:09:47;;;;;;;6.22;3.78;;;20.30;99.90;;;;;;5032557;28;20022;-45
2023/06/12 10:12:13;;;;;;;5.18;3.47;;;20.30;99.90;;;;;;5032524;28;20570;-47
2023/06/12 10:14:40;;;;;;;4.72;3.60;;;20.20;99.90;;;;;;5032626;28;20052;-45
2023/06/12 10:17:07;;;;;;;5.85;3.85;;;20.30;99.90;;;;;;5032471;28;20124;-43
2023/06/12 10:19:35;;;;;;;5.45;3.67;;;20.30;99.90;;;;;;5032592;28;20060;-44
2023/06/12 10:22:02;;;;;;;5.10;4.03;;;20.30;99.90;;;;;;5033109;28;20029;-46
2023/06/12 10:24:29;;;;;;;6.47;3.92;;;20.30;99.90;;;;;;5032926;28;20485;-45
2023/06/12 10:26:56;;;;;;;4.10;3.47;;;20.30;99.90;;;;;;5031863;28;20064;-44
2023/06/12 10:29:30;;;;;;;4.82;3.60;;;20.30;99.90;;;;;;5031739;28;20041;-47
2023/06/12 10:32:15;;;;;;;7.63;3.90;;;20.30;99.90;;;;;;5031781;28;20112;-48
2023/06/12 10:34:43;;;;;;;7.22;3.80;;;20.30;99.40;;;;;;5031753;28;20505;-43
2023/06/12 10:37:23;;;;;;;6.55;4.03;;;20.40;99.10;;;;;;5032103;28;20049;-46
2023/06/12 10:40:11;;;;;;;5.05;4.03;;;20.40;99.10;;;;;;5031702;28;20029;-48
2023/06/12 10:42:51;;;;;;;5.85;3.83;;;20.40;99.10;;;;;;5031649;28;20052;-48
2023/06/12 10:45:20;;;;;;;6.65;4.38;;;20.40;99.30;;;;;;5031648;28;20552;-43
2023/06/12 10:48:06;;;;;;;5.28;4.07;;;20.40;99.40;;;;;;5032719;28;20033;-49
2023/06/12 10:50:33;;;;;;;7.55;3.88;;;20.50;98.50;;;;;;5031720;28;20021;-45
2023/06/12 10:53:03;;;;;;;7.05;3.88;;;20.60;98.60;;;;;;5031613;28;20485;-44
2023/06/12 10:56:11;;;;;;;7.53;4.25;;;20.60;98.70;;;;;;5034130;28;20167;-43
2023/06/12 10:58:41;;;;;;;7.18;3.83;;;20.50;98.70;;;;;;5031306;28;20022;-48
2023/06/12 11:01:13;;;;;;;8.18;3.88;;;20.60;98.80;;;;;;5031575;28;20121;-45
2023/06/12 11:03:42;;;;;;;7.30;4.10;;;20.50;98.80;;;;;;5032722;28;20043;-45
2023/06/12 11:06:16;;;;;;;5.78;4.00;;;20.50;99.00;;;;;;5031798;28;20097;-48
2023/06/12 11:08:46;;;;;;;4.93;3.95;;;20.50;99.00;;;;;;5031804;28;20022;-44
2023/06/12 11:11:14;;;;;;;5.95;4.28;;;20.50;99.00;;;;;;5030996;28;20404;-43
2023/06/12 11:13:44;;;;;;;4.85;4.28;;;20.50;99.10;;;;;;5031313;28;20095;-46
2023/06/12 11:16:13;;;;;;;7.25;4.00;;;20.50;99.10;;;;;;5031276;28;20507;-48
2023/06/12 11:18:40;;;;;;;7.35;3.47;;;20.50;98.50;;;;;;5031121;28;20485;-44
2023/06/12 11:21:07;;;;;;;7.30;4.00;;;20.70;97.70;;;;;;5030905;28;20022;-46
2023/06/12 11:23:33;;;;;;;4.93;3.85;;;20.70;98.20;;;;;;5031274;28;20468;-44
2023/06/12 11:25:59;;;;;;;5.38;3.97;;;20.70;97.90;;;;;;5031607;28;20516;-45
2023/06/12 11:28:28;;;;;;;6.13;3.85;;;20.70;98.00;;;;;;5032154;28;20075;-49
2023/06/12 11:30:54;;;;;;;8.23;3.95;;;20.70;98.10;;;;;;5031349;28;20013;-45
2023/06/12 11:33:21;;;;;;;7.13;3.67;;;20.70;98.20;;;;;;5031992;28;20044;-45
2023/06/12 11:35:51;;;;;;;5.22;3.83;;;20.70;98.30;;;;;;5031427;28;20172;-44
2023/06/12 11:38:21;;;;;;;4.55;3.90;;;20.60;98.40;;;;;;5030940;28;20033;-44
2023/06/12 11:40:48;;;;;;;7.80;3.55;;;20.60;98.50;;;;;;5030855;28;20035;-44
2023/06/12 11:43:16;;;;;;;5.10;3.65;;;20.60;98.50;;;;;;5031282;28;20100;-45
2023/06/12 11:45:43;;;;;;;6.93;3.40;;;20.80;97.20;;;;;;5030995;28;20045;-36
2023/06/12 11:48:16;;;;;;;6.25;4.00;;;20.80;97.40;;;;;;5030919;28;20025;-37
2023/06/12 11:50:49;;;;;;;6.40;3.87;;;20.90;97.50;;;;;;5031928;28;20026;-37
2023/06/12 11:53:16;;;;;;;7.15;3.92;;;20.80;97.50;;;;;;5030933;28;20025;-37
2023/06/12 11:55:44;;;;;;;5.45;3.47;;;20.80;97.60;;;;;;5031214;28;20527;-36
2023/06/12 11:58:10;;;;;;;5.07;3.92;;;20.90;97.70;;;;;;5029480;28;20501;-37
2023/06/12 12:00:39;;;;;;;5.15;3.90;;;20.80;97.80;;;;;;5031160;28;20068;-40
2023/06/12 12:03:09;;;;;;;4.60;4.07;;;20.80;97.80;;;;;;5031346;28;20025;-37
2023/06/12 12:05:37;;;;;;;4.80;3.85;;;20.80;97.90;;;;;;5030559;28;20378;-40
2023/06/12 12:08:04;;;;;;;6.57;3.72;;;20.80;97.90;;;;;;5031266;28;20556;-37
2023/06/12 12:10:40;;;;;;;5.80;3.85;;;20.80;98.00;;;;;;5034150;28;20104;-38
2023/06/12 12:13:06;;;;;;;6.78;4.03;;;20.80;98.10;;;;;;5035164;28;20089;-36
2023/06/12 12:15:35;;;;;;;5.32;3.60;;;20.80;98.10;;;;;;5035176;28;20431;-37
2023/06/12 12:18:01;;;;;;;5.35;3.80;;;20.70;98.40;;;;;;5034531;28;20053;-36
2023/06/12 12:20:29;;;;;;;6.88;3.90;;;20.80;98.20;;;;;;5034129;28;20115;-34
2023/06/12 12:22:59;;;;;;;4.85;3.60;;;20.70;98.20;;;;;;5034194;28;20032;-40
2023/06/12 12:25:27;;;;;;;7.07;3.58;;;20.80;98.30;;;;;;5034452;28;20053;-34
2023/06/12 12:27:55;;;;;;;5.72;3.70;;;20.70;98.30;;;;;;5034624;28;20040;-37
2023/06/12 12:30:21;;;;;;;6.10;3.80;;;20.70;98.30;;;;;;5034529;28;20040;-36
2023/06/12 12:32:49;;;;;;;5.22;3.67;;;20.70;98.30;;;;;;5035293;28;20029;-38
2023/06/12 12:35:16;;;;;;;3.97;3.55;;;20.80;98.40;;;;;;5035024;28;20036;-40
2023/06/12 12:37:43;;;;;;;5.90;3.63;;;20.70;98.40;;;;;;5034050;28;20488;-34
2023/06/12 12:40:10;;;;;;;3.80;3.35;;;20.70;98.40;;;;;;5034659;28;20037;-39
2023/06/12 12:42:48;;;;;;;4.70;3.72;;;20.80;98.50;;;;;;5034079;28;20094;-36
2023/06/12 12:45:16;;;;;;;6.95;3.63;;;20.70;98.50;;;;;;5034015;28;20029;-34
2023/06/12 12:47:47;;;;;;;6.13;3.80;;;20.70;98.50;;;;;;5033820;28;20112;-34
2023/06/12 12:50:14;;;;;;;5.32;3.40;;;20.80;98.60;;;;;;5033792;28;20022;-40